Terminal Aerodrome Forecast
Issued by NWS

Home | Current Version | Previous Version | Graphics & Text | Print | Product List | Glossary On
Versions: 1 2 3 4 5 6 7 8 9 10 11 12 13
597
FTUS43 KBIS 221129
TAFDIK
TAF
KDIK 221129Z 2212/2312 25006KT P6SM SCT250
     FM221800 31006KT P6SM FEW200
     FM222300 01006KT P6SM FEW200
     FM230200 09007KT P6SM FEW250
     FM230600 15007KT P6SM FEW200=

USA.gov is the U.S. government's official web portal to all federal, state and local government web resources and services.